sensor_id;sensor_type;location;lat;lon;timestamp;temperature;humidity
22526;DHT22;11429;50.842;4.386;2023-02-21T00:02:37;8.20;99.90
22526;DHT22;11429;50.842;4.386;2023-02-21T00:05:22;8.20;99.90
22526;DHT22;11429;50.842;4.386;2023-02-21T00:08:06;8.20;99.90
22526;DHT22;11429;50.842;4.386;2023-02-21T00:10:50;8.20;99.90
22526;DHT22;11429;50.842;4.386;2023-02-21T00:13:38;8.20;99.90
22526;DHT22;11429;50.842;4.386;2023-02-21T00:16:23;8.20;99.90
22526;DHT22;11429;50.842;4.386;2023-02-21T00:19:07;8.40;99.90
22526;DHT22;11429;50.842;4.386;2023-02-21T00:21:51;8.50;99.90
22526;DHT22;11429;50.842;4.386;2023-02-21T00:24:36;8.80;99.90
22526;DHT22;11429;50.842;4.386;2023-02-21T00:27:20;9.00;99.90
22526;DHT22;11429;50.842;4.386;2023-02-21T00:30:05;8.80;99.90
22526;DHT22;11429;50.842;4.386;2023-02-21T00:32:50;8.70;99.90
22526;DHT22;11429;50.842;4.386;2023-02-21T00:35:35;8.40;99.90
22526;DHT22;11429;50.842;4.386;2023-02-21T00:38:19;8.20;99.90
22526;DHT22;11429;50.842;4.386;2023-02-21T00:41:03;8.30;99.90
22526;DHT22;11429;50.842;4.386;2023-02-21T00:43:47;8.40;99.90
22526;DHT22;11429;50.842;4.386;2023-02-21T00:46:31;8.70;99.90
22526;DHT22;11429;50.842;4.386;2023-02-21T00:49:15;9.00;99.90
22526;DHT22;11429;50.842;4.386;2023-02-21T00:52:00;9.20;99.90
22526;DHT22;11429;50.842;4.386;2023-02-21T00:54:44;8.60;99.90
22526;DHT22;11429;50.842;4.386;2023-02-21T00:57:28;8.30;99.90
22526;DHT22;11429;50.842;4.386;2023-02-21T01:00:22;8.30;99.90
22526;DHT22;11429;50.842;4.386;2023-02-21T01:03:07;8.20;99.90
22526;DHT22;11429;50.842;4.386;2023-02-21T01:05:53;8.00;99.90
22526;DHT22;11429;50.842;4.386;2023-02-21T01:08:44;7.90;99.90
22526;DHT22;11429;50.842;4.386;2023-02-21T01:11:29;7.90;99.90
22526;DHT22;11429;50.842;4.386;2023-02-21T01:14:14;8.10;99.90
22526;DHT22;11429;50.842;4.386;2023-02-21T01:16:59;8.00;99.90
22526;DHT22;11429;50.842;4.386;2023-02-21T01:19:43;8.20;99.90
22526;DHT22;11429;50.842;4.386;2023-02-21T01:22:28;8.20;99.90
22526;DHT22;11429;50.842;4.386;2023-02-21T01:25:13;8.20;99.90
22526;DHT22;11429;50.842;4.386;2023-02-21T01:27:57;8.00;99.90
22526;DHT22;11429;50.842;4.386;2023-02-21T01:30:42;8.10;99.90
22526;DHT22;11429;50.842;4.386;2023-02-21T01:33:26;8.10;99.90
22526;DHT22;11429;50.842;4.386;2023-02-21T01:36:10;8.20;99.90
22526;DHT22;11429;50.842;4.386;2023-02-21T01:38:55;8.50;99.90
22526;DHT22;11429;50.842;4.386;2023-02-21T01:41:39;8.70;99.90
22526;DHT22;11429;50.842;4.386;2023-02-21T01:44:41;8.50;99.90
22526;DHT22;11429;50.842;4.386;2023-02-21T01:47:26;8.20;99.90
22526;DHT22;11429;50.842;4.386;2023-02-21T01:50:37;7.90;99.90
22526;DHT22;11429;50.842;4.386;2023-02-21T01:53:24;7.90;99.90
22526;DHT22;11429;50.842;4.386;2023-02-21T01:56:09;8.00;99.90
22526;DHT22;11429;50.842;4.386;2023-02-21T01:58:57;8.00;99.90
22526;DHT22;11429;50.842;4.386;2023-02-21T02:04:40;7.90;99.90
22526;DHT22;11429;50.842;4.386;2023-02-21T02:07:25;7.90;99.90
22526;DHT22;11429;50.842;4.386;2023-02-21T02:10:10;7.80;99.90
22526;DHT22;11429;50.842;4.386;2023-02-21T02:13:20;8.00;99.90
22526;DHT22;11429;50.842;4.386;2023-02-21T02:15:54;7.90;99.90
22526;DHT22;11429;50.842;4.386;2023-02-21T02:27:04;8.30;99.90
22526;DHT22;11429;50.842;4.386;2023-02-21T02:35:15;8.00;99.90
22526;DHT22;11429;50.842;4.386;2023-02-21T02:37:56;8.00;99.90
22526;DHT22;11429;50.842;4.386;2023-02-21T02:40:28;7.80;99.90
22526;DHT22;11429;50.842;4.386;2023-02-21T02:43:13;7.90;99.90
22526;DHT22;11429;50.842;4.386;2023-02-21T02:45:47;7.90;99.90
22526;DHT22;11429;50.842;4.386;2023-02-21T02:48:23;8.00;99.90
22526;DHT22;11429;50.842;4.386;2023-02-21T02:50:52;7.80;99.90
22526;DHT22;11429;50.842;4.386;2023-02-21T02:53:22;8.00;99.90
22526;DHT22;11429;50.842;4.386;2023-02-21T02:56:02;7.90;99.90
22526;DHT22;11429;50.842;4.386;2023-02-21T02:58:32;7.90;99.90
22526;DHT22;11429;50.842;4.386;2023-02-21T03:14:40;8.30;99.90
22526;DHT22;11429;50.842;4.386;2023-02-21T03:17:12;7.90;99.90
22526;DHT22;11429;50.842;4.386;2023-02-21T03:19:43;8.10;99.90
22526;DHT22;11429;50.842;4.386;2023-02-21T03:22:13;8.70;99.90
22526;DHT22;11429;50.842;4.386;2023-02-21T03:24:42;8.80;99.90
22526;DHT22;11429;50.842;4.386;2023-02-21T03:27:10;8.80;99.90
22526;DHT22;11429;50.842;4.386;2023-02-21T03:29:36;8.50;99.90
22526;DHT22;11429;50.842;4.386;2023-02-21T03:32:09;8.40;99.90
22526;DHT22;11429;50.842;4.386;2023-02-21T03:34:40;8.30;99.90
22526;DHT22;11429;50.842;4.386;2023-02-21T03:37:08;8.10;99.90
22526;DHT22;11429;50.842;4.386;2023-02-21T03:39:34;7.90;99.90
22526;DHT22;11429;50.842;4.386;2023-02-21T03:42:00;7.80;99.90
22526;DHT22;11429;50.842;4.386;2023-02-21T03:44:26;7.80;99.90
22526;DHT22;11429;50.842;4.386;2023-02-21T03:46:52;7.80;99.90
22526;DHT22;11429;50.842;4.386;2023-02-21T03:49:18;7.70;99.90
22526;DHT22;11429;50.842;4.386;2023-02-21T03:51:44;7.90;99.90
22526;DHT22;11429;50.842;4.386;2023-02-21T03:54:10;8.20;99.90
22526;DHT22;11429;50.842;4.386;2023-02-21T03:56:35;8.20;99.90
22526;DHT22;11429;50.842;4.386;2023-02-21T03:59:01;8.10;99.90
22526;DHT22;11429;50.842;4.386;2023-02-21T04:01:27;8.10;99.90
22526;DHT22;11429;50.842;4.386;2023-02-21T04:03:53;7.80;99.90
22526;DHT22;11429;50.842;4.386;2023-02-21T04:06:19;7.60;99.90
22526;DHT22;11429;50.842;4.386;2023-02-21T04:08:44;7.70;99.90
22526;DHT22;11429;50.842;4.386;2023-02-21T04:11:10;7.70;99.90
22526;DHT22;11429;50.842;4.386;2023-02-21T04:13:36;7.70;99.90
22526;DHT22;11429;50.842;4.386;2023-02-21T04:16:01;7.70;99.90
22526;DHT22;11429;50.842;4.386;2023-02-21T04:18:27;7.90;99.90
22526;DHT22;11429;50.842;4.386;2023-02-21T04:20:53;8.00;99.90
22526;DHT22;11429;50.842;4.386;2023-02-21T04:23:20;8.00;99.90
22526;DHT22;11429;50.842;4.386;2023-02-21T04:25:46;7.90;99.90
22526;DHT22;11429;50.842;4.386;2023-02-21T04:28:12;7.80;99.90
22526;DHT22;11429;50.842;4.386;2023-02-21T04:30:38;7.80;99.90
22526;DHT22;11429;50.842;4.386;2023-02-21T04:33:04;7.70;99.90
22526;DHT22;11429;50.842;4.386;2023-02-21T04:35:29;7.80;99.90
22526;DHT22;11429;50.842;4.386;2023-02-21T04:37:55;7.80;99.90
22526;DHT22;11429;50.842;4.386;2023-02-21T04:40:21;7.80;99.90
22526;DHT22;11429;50.842;4.386;2023-02-21T04:42:47;7.60;99.90
22526;DHT22;11429;50.842;4.386;2023-02-21T04:45:12;7.50;99.90
22526;DHT22;11429;50.842;4.386;2023-02-21T04:47:38;7.60;99.90
22526;DHT22;11429;50.842;4.386;2023-02-21T04:50:05;7.50;99.90
22526;DHT22;11429;50.842;4.386;2023-02-21T04:52:30;7.70;99.90
22526;DHT22;11429;50.842;4.386;2023-02-21T04:54:57;7.90;99.90
22526;DHT22;11429;50.842;4.386;2023-02-21T04:57:23;7.90;99.90
22526;DHT22;11429;50.842;4.386;2023-02-21T04:59:54;7.80;99.90
22526;DHT22;11429;50.842;4.386;2023-02-21T05:02:20;7.90;99.90
22526;DHT22;11429;50.842;4.386;2023-02-21T05:04:46;7.60;99.90
22526;DHT22;11429;50.842;4.386;2023-02-21T05:07:11;7.50;99.90
22526;DHT22;11429;50.842;4.386;2023-02-21T05:09:37;7.50;99.90
22526;DHT22;11429;50.842;4.386;2023-02-21T05:12:03;7.50;99.90
22526;DHT22;11429;50.842;4.386;2023-02-21T05:14:39;7.40;99.90
22526;DHT22;11429;50.842;4.386;2023-02-21T05:17:06;7.40;99.90
22526;DHT22;11429;50.842;4.386;2023-02-21T05:19:32;7.30;99.90
22526;DHT22;11429;50.842;4.386;2023-02-21T05:22:00;7.40;99.90
22526;DHT22;11429;50.842;4.386;2023-02-21T05:24:28;7.50;99.90
22526;DHT22;11429;50.842;4.386;2023-02-21T05:26:55;7.40;99.90
22526;DHT22;11429;50.842;4.386;2023-02-21T05:29:21;7.40;99.90
22526;DHT22;11429;50.842;4.386;2023-02-21T05:31:47;7.40;99.90
22526;DHT22;11429;50.842;4.386;2023-02-21T05:34:14;7.40;99.90
22526;DHT22;11429;50.842;4.386;2023-02-21T05:36:40;7.50;99.90
22526;DHT22;11429;50.842;4.386;2023-02-21T05:39:07;7.50;99.90
22526;DHT22;11429;50.842;4.386;2023-02-21T05:41:32;7.40;99.90
22526;DHT22;11429;50.842;4.386;2023-02-21T05:44:01;7.30;99.90
22526;DHT22;11429;50.842;4.386;2023-02-21T05:46:33;7.20;99.90
22526;DHT22;11429;50.842;4.386;2023-02-21T05:49:01;7.30;99.90
22526;DHT22;11429;50.842;4.386;2023-02-21T05:51:36;7.50;99.90
22526;DHT22;11429;50.842;4.386;2023-02-21T05:54:03;7.70;99.90
22526;DHT22;11429;50.842;4.386;2023-02-21T05:56:29;7.70;99.90
22526;DHT22;11429;50.842;4.386;2023-02-21T05:58:55;7.70;99.90
22526;DHT22;11429;50.842;4.386;2023-02-21T06:01:20;7.60;99.90
22526;DHT22;11429;50.842;4.386;2023-02-21T06:03:46;7.50;99.90
22526;DHT22;11429;50.842;4.386;2023-02-21T06:06:14;7.60;99.90
22526;DHT22;11429;50.842;4.386;2023-02-21T06:08:45;7.70;99.90
22526;DHT22;11429;50.842;4.386;2023-02-21T06:11:12;8.00;99.90
22526;DHT22;11429;50.842;4.386;2023-02-21T06:13:38;8.00;99.90
22526;DHT22;11429;50.842;4.386;2023-02-21T06:16:04;7.90;99.90
22526;DHT22;11429;50.842;4.386;2023-02-21T06:18:30;7.90;99.90
22526;DHT22;11429;50.842;4.386;2023-02-21T06:20:55;7.80;99.90
22526;DHT22;11429;50.842;4.386;2023-02-21T06:23:21;7.90;99.90
22526;DHT22;11429;50.842;4.386;2023-02-21T06:25:46;7.70;99.90
22526;DHT22;11429;50.842;4.386;2023-02-21T06:28:12;7.70;99.90
22526;DHT22;11429;50.842;4.386;2023-02-21T06:30:38;7.60;99.90
22526;DHT22;11429;50.842;4.386;2023-02-21T06:33:03;7.50;99.90
22526;DHT22;11429;50.842;4.386;2023-02-21T06:35:29;7.70;99.90
22526;DHT22;11429;50.842;4.386;2023-02-21T06:37:55;7.90;99.90
22526;DHT22;11429;50.842;4.386;2023-02-21T06:40:20;8.20;99.90
22526;DHT22;11429;50.842;4.386;2023-02-21T06:42:46;7.90;99.90
22526;DHT22;11429;50.842;4.386;2023-02-21T06:45:12;7.70;99.90
22526;DHT22;11429;50.842;4.386;2023-02-21T06:47:38;7.70;99.90
22526;DHT22;11429;50.842;4.386;2023-02-21T06:50:03;7.80;99.90
22526;DHT22;11429;50.842;4.386;2023-02-21T06:52:30;7.80;99.90
22526;DHT22;11429;50.842;4.386;2023-02-21T06:54:56;7.90;99.90
22526;DHT22;11429;50.842;4.386;2023-02-21T06:57:22;7.70;99.90
22526;DHT22;11429;50.842;4.386;2023-02-21T06:59:47;7.50;99.90
22526;DHT22;11429;50.842;4.386;2023-02-21T07:02:18;7.30;99.90
22526;DHT22;11429;50.842;4.386;2023-02-21T07:04:45;7.00;99.90
22526;DHT22;11429;50.842;4.386;2023-02-21T07:07:11;7.10;99.90
22526;DHT22;11429;50.842;4.386;2023-02-21T07:09:37;7.30;99.90
22526;DHT22;11429;50.842;4.386;2023-02-21T07:12:03;7.40;99.90
22526;DHT22;11429;50.842;4.386;2023-02-21T07:14:29;7.30;99.90
22526;DHT22;11429;50.842;4.386;2023-02-21T07:16:54;7.20;99.90
22526;DHT22;11429;50.842;4.386;2023-02-21T07:19:20;7.20;99.90
22526;DHT22;11429;50.842;4.386;2023-02-21T07:21:46;7.10;99.90
22526;DHT22;11429;50.842;4.386;2023-02-21T07:24:12;7.10;99.90
22526;DHT22;11429;50.842;4.386;2023-02-21T07:26:38;7.10;99.90
22526;DHT22;11429;50.842;4.386;2023-02-21T07:29:05;7.10;99.90
22526;DHT22;11429;50.842;4.386;2023-02-21T07:31:30;7.20;99.90
22526;DHT22;11429;50.842;4.386;2023-02-21T07:33:56;7.30;99.90
22526;DHT22;11429;50.842;4.386;2023-02-21T07:36:22;7.30;99.90
22526;DHT22;11429;50.842;4.386;2023-02-21T07:38:48;7.20;99.90
22526;DHT22;11429;50.842;4.386;2023-02-21T07:41:15;7.20;99.90
22526;DHT22;11429;50.842;4.386;2023-02-21T07:43:42;7.10;99.90
22526;DHT22;11429;50.842;4.386;2023-02-21T07:46:11;7.00;99.90
22526;DHT22;11429;50.842;4.386;2023-02-21T07:48:38;7.10;99.90
22526;DHT22;11429;50.842;4.386;2023-02-21T07:51:05;7.00;99.90
22526;DHT22;11429;50.842;4.386;2023-02-21T07:53:31;7.00;99.90
22526;DHT22;11429;50.842;4.386;2023-02-21T07:55:57;7.00;99.90
22526;DHT22;11429;50.842;4.386;2023-02-21T07:58:22;7.00;99.90
22526;DHT22;11429;50.842;4.386;2023-02-21T08:00:48;7.10;99.90
22526;DHT22;11429;50.842;4.386;2023-02-21T08:03:14;7.30;99.90
22526;DHT22;11429;50.842;4.386;2023-02-21T08:05:40;7.90;99.90
22526;DHT22;11429;50.842;4.386;2023-02-21T08:08:09;8.20;99.90
22526;DHT22;11429;50.842;4.386;2023-02-21T08:10:35;8.20;99.90
22526;DHT22;11429;50.842;4.386;2023-02-21T08:13:01;8.20;99.90
22526;DHT22;11429;50.842;4.386;2023-02-21T08:15:28;8.00;99.90
22526;DHT22;11429;50.842;4.386;2023-02-21T08:17:53;7.70;99.90
22526;DHT22;11429;50.842;4.386;2023-02-21T08:20:19;7.70;99.90
22526;DHT22;11429;50.842;4.386;2023-02-21T08:22:45;7.80;99.90
22526;DHT22;11429;50.842;4.386;2023-02-21T08:25:12;7.60;99.90
22526;DHT22;11429;50.842;4.386;2023-02-21T08:27:40;7.60;99.90
22526;DHT22;11429;50.842;4.386;2023-02-21T08:30:07;7.70;99.90
22526;DHT22;11429;50.842;4.386;2023-02-21T08:32:33;7.60;99.90
22526;DHT22;11429;50.842;4.386;2023-02-21T08:34:59;7.50;99.90
22526;DHT22;11429;50.842;4.386;2023-02-21T08:37:25;7.40;99.90
22526;DHT22;11429;50.842;4.386;2023-02-21T08:39:58;7.40;99.90
22526;DHT22;11429;50.842;4.386;2023-02-21T08:42:24;7.40;99.90
22526;DHT22;11429;50.842;4.386;2023-02-21T08:44:49;7.30;99.90
22526;DHT22;11429;50.842;4.386;2023-02-21T08:47:16;7.20;99.90
22526;DHT22;11429;50.842;4.386;2023-02-21T08:49:46;7.10;99.90
22526;DHT22;11429;50.842;4.386;2023-02-21T08:52:16;7.20;99.90
22526;DHT22;11429;50.842;4.386;2023-02-21T08:54:43;7.30;99.90
22526;DHT22;11429;50.842;4.386;2023-02-21T08:57:09;7.30;99.90
22526;DHT22;11429;50.842;4.386;2023-02-21T08:59:41;7.40;99.90
22526;DHT22;11429;50.842;4.386;2023-02-21T09:02:21;7.40;99.90
22526;DHT22;11429;50.842;4.386;2023-02-21T09:04:48;7.40;99.90
22526;DHT22;11429;50.842;4.386;2023-02-21T09:07:19;7.30;99.90
22526;DHT22;11429;50.842;4.386;2023-02-21T09:09:45;7.30;99.90
22526;DHT22;11429;50.842;4.386;2023-02-21T09:12:11;7.30;99.90
22526;DHT22;11429;50.842;4.386;2023-02-21T09:14:39;7.50;99.90
22526;DHT22;11429;50.842;4.386;2023-02-21T09:17:06;7.60;99.90
22526;DHT22;11429;50.842;4.386;2023-02-21T09:19:32;7.70;99.90
22526;DHT22;11429;50.842;4.386;2023-02-21T09:21:58;7.70;99.90
22526;DHT22;11429;50.842;4.386;2023-02-21T09:24:26;7.80;99.90
22526;DHT22;11429;50.842;4.386;2023-02-21T09:26:56;7.90;99.90
22526;DHT22;11429;50.842;4.386;2023-02-21T09:29:33;8.20;99.90
22526;DHT22;11429;50.842;4.386;2023-02-21T09:31:59;8.20;99.90
22526;DHT22;11429;50.842;4.386;2023-02-21T09:34:26;8.20;99.90
22526;DHT22;11429;50.842;4.386;2023-02-21T09:36:52;8.30;99.90
22526;DHT22;11429;50.842;4.386;2023-02-21T09:39:21;8.20;99.90
22526;DHT22;11429;50.842;4.386;2023-02-21T09:41:48;8.10;99.90
22526;DHT22;11429;50.842;4.386;2023-02-21T09:44:20;8.10;99.90
22526;DHT22;11429;50.842;4.386;2023-02-21T09:47:02;8.00;99.90
22526;DHT22;11429;50.842;4.386;2023-02-21T09:49:39;7.90;99.90
22526;DHT22;11429;50.842;4.386;2023-02-21T09:54:56;8.00;99.90
22526;DHT22;11429;50.842;4.386;2023-02-21T09:57:22;8.20;99.90
22526;DHT22;11429;50.842;4.386;2023-02-21T09:59:48;8.10;99.90
22526;DHT22;11429;50.842;4.386;2023-02-21T10:02:29;8.30;99.90
22526;DHT22;11429;50.842;4.386;2023-02-21T10:10:58;8.30;99.90
22526;DHT22;11429;50.842;4.386;2023-02-21T10:16:13;8.70;99.90
22526;DHT22;11429;50.842;4.386;2023-02-21T10:18:48;8.60;99.90
22526;DHT22;11429;50.842;4.386;2023-02-21T10:21:37;8.60;99.90
22526;DHT22;11429;50.842;4.386;2023-02-21T10:24:12;8.50;99.90
22526;DHT22;11429;50.842;4.386;2023-02-21T10:26:39;8.20;99.90
22526;DHT22;11429;50.842;4.386;2023-02-21T10:29:23;8.10;99.90
22526;DHT22;11429;50.842;4.386;2023-02-21T10:31:54;8.10;99.90
22526;DHT22;11429;50.842;4.386;2023-02-21T10:34:26;8.40;99.90
22526;DHT22;11429;50.842;4.386;2023-02-21T10:36:54;8.90;99.90
22526;DHT22;11429;50.842;4.386;2023-02-21T10:39:42;8.70;99.90
22526;DHT22;11429;50.842;4.386;2023-02-21T10:42:25;8.40;99.90
22526;DHT22;11429;50.842;4.386;2023-02-21T10:44:53;8.20;99.90
22526;DHT22;11429;50.842;4.386;2023-02-21T10:47:32;7.90;99.90
22526;DHT22;11429;50.842;4.386;2023-02-21T10:50:07;8.00;99.90
22526;DHT22;11429;50.842;4.386;2023-02-21T10:52:48;7.90;99.90
22526;DHT22;11429;50.842;4.386;2023-02-21T10:55:20;7.90;99.90
22526;DHT22;11429;50.842;4.386;2023-02-21T10:57:50;7.90;99.90
22526;DHT22;11429;50.842;4.386;2023-02-21T11:00:42;8.10;99.90
22526;DHT22;11429;50.842;4.386;2023-02-21T11:05:50;8.50;99.90
22526;DHT22;11429;50.842;4.386;2023-02-21T11:08:37;8.60;99.90
22526;DHT22;11429;50.842;4.386;2023-02-21T11:11:03;8.50;99.90
22526;DHT22;11429;50.842;4.386;2023-02-21T11:13:30;8.30;99.90
22526;DHT22;11429;50.842;4.386;2023-02-21T11:16:18;8.40;99.90
22526;DHT22;11429;50.842;4.386;2023-02-21T11:19:03;8.30;99.90
22526;DHT22;11429;50.842;4.386;2023-02-21T11:21:30;8.40;99.90
22526;DHT22;11429;50.842;4.386;2023-02-21T11:24:00;8.90;99.90
22526;DHT22;11429;50.842;4.386;2023-02-21T11:26:46;9.20;99.90
22526;DHT22;11429;50.842;4.386;2023-02-21T11:29:23;9.00;99.90
22526;DHT22;11429;50.842;4.386;2023-02-21T11:31:53;9.10;99.90
22526;DHT22;11429;50.842;4.386;2023-02-21T11:34:20;9.30;99.90
22526;DHT22;11429;50.842;4.386;2023-02-21T11:36:47;9.20;99.90
22526;DHT22;11429;50.842;4.386;2023-02-21T11:41:49;8.80;99.90
22526;DHT22;11429;50.842;4.386;2023-02-21T11:44:45;9.00;99.90
22526;DHT22;11429;50.842;4.386;2023-02-21T11:47:20;9.30;99.90
22526;DHT22;11429;50.842;4.386;2023-02-21T12:07:11;9.00;99.90
22526;DHT22;11429;50.842;4.386;2023-02-21T12:09:55;9.20;99.90
22526;DHT22;11429;50.842;4.386;2023-02-21T12:45:33;9.50;99.90
22526;DHT22;11429;50.842;4.386;2023-02-21T12:48:13;9.30;99.90
22526;DHT22;11429;50.842;4.386;2023-02-21T12:50:51;9.30;99.90
22526;DHT22;11429;50.842;4.386;2023-02-21T12:53:30;9.30;99.90
22526;DHT22;11429;50.842;4.386;2023-02-21T12:56:10;9.30;99.90
22526;DHT22;11429;50.842;4.386;2023-02-21T12:58:46;9.30;99.90
22526;DHT22;11429;50.842;4.386;2023-02-21T13:01:20;9.20;99.90
22526;DHT22;11429;50.842;4.386;2023-02-21T13:06:58;9.90;99.90
22526;DHT22;11429;50.842;4.386;2023-02-21T13:09:42;9.90;99.90
22526;DHT22;11429;50.842;4.386;2023-02-21T13:12:34;9.60;99.90
22526;DHT22;11429;50.842;4.386;2023-02-21T13:15:23;9.60;99.90
22526;DHT22;11429;50.842;4.386;2023-02-21T13:18:17;9.80;99.90
22526;DHT22;11429;50.842;4.386;2023-02-21T13:21:09;9.40;99.90
22526;DHT22;11429;50.842;4.386;2023-02-21T13:23:59;9.40;99.90
22526;DHT22;11429;50.842;4.386;2023-02-21T13:29:00;9.30;99.90
22526;DHT22;11429;50.842;4.386;2023-02-21T13:31:32;9.30;99.90
22526;DHT22;11429;50.842;4.386;2023-02-21T13:34:05;9.40;99.90
22526;DHT22;11429;50.842;4.386;2023-02-21T13:36:40;9.30;99.90
22526;DHT22;11429;50.842;4.386;2023-02-21T13:44:12;9.40;99.90
22526;DHT22;11429;50.842;4.386;2023-02-21T13:57:46;10.00;99.90
22526;DHT22;11429;50.842;4.386;2023-02-21T14:08:09;10.00;99.90
22526;DHT22;11429;50.842;4.386;2023-02-21T14:11:25;10.40;99.90
22526;DHT22;11429;50.842;4.386;2023-02-21T14:13:44;10.70;99.90
22526;DHT22;11429;50.842;4.386;2023-02-21T14:16:16;10.50;99.90
22526;DHT22;11429;50.842;4.386;2023-02-21T14:21:42;9.90;99.90
22526;DHT22;11429;50.842;4.386;2023-02-21T14:30:13;9.70;99.90
22526;DHT22;11429;50.842;4.386;2023-02-21T14:38:14;9.70;99.90
22526;DHT22;11429;50.842;4.386;2023-02-21T14:44:04;9.90;99.90
22526;DHT22;11429;50.842;4.386;2023-02-21T14:47:05;10.10;99.90
22526;DHT22;11429;50.842;4.386;2023-02-21T14:52:47;9.90;99.90
22526;DHT22;11429;50.842;4.386;2023-02-21T15:04:14;9.50;99.90
22526;DHT22;11429;50.842;4.386;2023-02-21T15:06:42;9.50;99.90
22526;DHT22;11429;50.842;4.386;2023-02-21T15:09:17;9.50;99.90
22526;DHT22;11429;50.842;4.386;2023-02-21T15:11:44;9.30;99.90
22526;DHT22;11429;50.842;4.386;2023-02-21T15:14:26;9.30;99.90
22526;DHT22;11429;50.842;4.386;2023-02-21T15:17:09;9.30;99.90
22526;DHT22;11429;50.842;4.386;2023-02-21T15:19:35;9.50;99.90
22526;DHT22;11429;50.842;4.386;2023-02-21T15:22:22;10.00;99.90
22526;DHT22;11429;50.842;4.386;2023-02-21T15:24:59;10.10;99.90
22526;DHT22;11429;50.842;4.386;2023-02-21T15:27:26;10.20;99.90
22526;DHT22;11429;50.842;4.386;2023-02-21T15:30:53;10.10;99.90
22526;DHT22;11429;50.842;4.386;2023-02-21T15:41:39;8.90;99.90
22526;DHT22;11429;50.842;4.386;2023-02-21T15:44:22;8.90;99.90
22526;DHT22;11429;50.842;4.386;2023-02-21T15:46:59;9.10;99.90
22526;DHT22;11429;50.842;4.386;2023-02-21T15:52:06;9.20;99.90
22526;DHT22;11429;50.842;4.386;2023-02-21T15:54:49;9.20;99.90
22526;DHT22;11429;50.842;4.386;2023-02-21T15:57:35;9.10;99.90
22526;DHT22;11429;50.842;4.386;2023-02-21T16:02:48;9.10;99.90
22526;DHT22;11429;50.842;4.386;2023-02-21T16:05:25;9.00;99.90
22526;DHT22;11429;50.842;4.386;2023-02-21T16:07:51;8.90;99.90
22526;DHT22;11429;50.842;4.386;2023-02-21T16:10:22;8.90;99.90
22526;DHT22;11429;50.842;4.386;2023-02-21T16:12:58;8.80;99.90
22526;DHT22;11429;50.842;4.386;2023-02-21T16:15:32;8.80;99.90
22526;DHT22;11429;50.842;4.386;2023-02-21T16:18:05;8.70;99.90
22526;DHT22;11429;50.842;4.386;2023-02-21T16:20:35;8.60;99.90
22526;DHT22;11429;50.842;4.386;2023-02-21T16:23:37;8.50;99.90
22526;DHT22;11429;50.842;4.386;2023-02-21T16:28:38;8.50;99.90
22526;DHT22;11429;50.842;4.386;2023-02-21T16:31:29;8.70;99.90
22526;DHT22;11429;50.842;4.386;2023-02-21T16:33:54;8.90;99.90
22526;DHT22;11429;50.842;4.386;2023-02-21T16:36:30;9.00;99.90
22526;DHT22;11429;50.842;4.386;2023-02-21T16:39:03;9.60;99.90
22526;DHT22;11429;50.842;4.386;2023-02-21T16:41:28;9.80;99.90
22526;DHT22;11429;50.842;4.386;2023-02-21T16:43:54;9.80;99.90
22526;DHT22;11429;50.842;4.386;2023-02-21T16:46:25;9.60;99.90
22526;DHT22;11429;50.842;4.386;2023-02-21T16:48:52;9.60;99.90
22526;DHT22;11429;50.842;4.386;2023-02-21T16:51:19;9.60;99.90
22526;DHT22;11429;50.842;4.386;2023-02-21T16:53:45;9.50;99.90
22526;DHT22;11429;50.842;4.386;2023-02-21T16:56:12;9.40;99.90
22526;DHT22;11429;50.842;4.386;2023-02-21T16:58:43;9.40;99.90
22526;DHT22;11429;50.842;4.386;2023-02-21T17:01:45;9.20;99.90
22526;DHT22;11429;50.842;4.386;2023-02-21T17:04:08;9.30;99.90
22526;DHT22;11429;50.842;4.386;2023-02-21T17:06:38;9.00;99.90
22526;DHT22;11429;50.842;4.386;2023-02-21T17:09:04;8.90;99.90
22526;DHT22;11429;50.842;4.386;2023-02-21T17:11:30;8.90;99.90
22526;DHT22;11429;50.842;4.386;2023-02-21T17:13:56;8.80;99.90
22526;DHT22;11429;50.842;4.386;2023-02-21T17:16:21;8.60;99.90
22526;DHT22;11429;50.842;4.386;2023-02-21T17:18:47;8.50;99.90
22526;DHT22;11429;50.842;4.386;2023-02-21T17:21:13;8.50;99.90
22526;DHT22;11429;50.842;4.386;2023-02-21T17:23:40;8.50;99.90
22526;DHT22;11429;50.842;4.386;2023-02-21T17:26:05;8.50;99.90
22526;DHT22;11429;50.842;4.386;2023-02-21T17:28:31;8.50;99.90
22526;DHT22;11429;50.842;4.386;2023-02-21T17:30:58;8.30;99.90
22526;DHT22;11429;50.842;4.386;2023-02-21T17:33:24;8.00;99.90
22526;DHT22;11429;50.842;4.386;2023-02-21T17:35:52;8.00;99.90
22526;DHT22;11429;50.842;4.386;2023-02-21T17:38:17;8.00;99.90
22526;DHT22;11429;50.842;4.386;2023-02-21T17:40:43;8.10;99.90
22526;DHT22;11429;50.842;4.386;2023-02-21T17:43:10;8.10;99.90
22526;DHT22;11429;50.842;4.386;2023-02-21T17:45:36;8.00;99.90
22526;DHT22;11429;50.842;4.386;2023-02-21T17:48:03;7.90;99.90
22526;DHT22;11429;50.842;4.386;2023-02-21T17:50:30;7.90;99.90
22526;DHT22;11429;50.842;4.386;2023-02-21T17:52:56;8.00;99.90
22526;DHT22;11429;50.842;4.386;2023-02-21T17:55:23;8.20;99.90
22526;DHT22;11429;50.842;4.386;2023-02-21T17:57:51;8.20;99.90
22526;DHT22;11429;50.842;4.386;2023-02-21T18:00:20;8.10;99.90
22526;DHT22;11429;50.842;4.386;2023-02-21T18:02:47;8.00;99.90
22526;DHT22;11429;50.842;4.386;2023-02-21T18:05:13;8.10;99.90
22526;DHT22;11429;50.842;4.386;2023-02-21T18:07:39;8.00;99.90
22526;DHT22;11429;50.842;4.386;2023-02-21T18:10:05;8.00;99.90
22526;DHT22;11429;50.842;4.386;2023-02-21T18:12:31;8.20;99.90
22526;DHT22;11429;50.842;4.386;2023-02-21T18:14:58;8.20;99.90
22526;DHT22;11429;50.842;4.386;2023-02-21T18:17:24;8.10;99.90
22526;DHT22;11429;50.842;4.386;2023-02-21T18:19:50;8.10;99.90
22526;DHT22;11429;50.842;4.386;2023-02-21T18:22:15;8.10;99.90
22526;DHT22;11429;50.842;4.386;2023-02-21T18:24:41;8.10;99.90
22526;DHT22;11429;50.842;4.386;2023-02-21T18:27:07;7.90;99.90
22526;DHT22;11429;50.842;4.386;2023-02-21T18:29:34;7.70;99.90
22526;DHT22;11429;50.842;4.386;2023-02-21T18:32:00;7.90;99.90
22526;DHT22;11429;50.842;4.386;2023-02-21T18:34:25;7.90;99.90
22526;DHT22;11429;50.842;4.386;2023-02-21T18:36:52;7.90;99.90
22526;DHT22;11429;50.842;4.386;2023-02-21T18:39:20;7.90;99.90
22526;DHT22;11429;50.842;4.386;2023-02-21T18:41:46;7.70;99.90
22526;DHT22;11429;50.842;4.386;2023-02-21T18:44:12;7.50;99.90
22526;DHT22;11429;50.842;4.386;2023-02-21T18:46:38;7.60;99.90
22526;DHT22;11429;50.842;4.386;2023-02-21T18:49:08;7.60;99.90
22526;DHT22;11429;50.842;4.386;2023-02-21T18:51:35;7.50;99.90
22526;DHT22;11429;50.842;4.386;2023-02-21T18:54:01;7.40;99.90
22526;DHT22;11429;50.842;4.386;2023-02-21T18:56:27;7.40;99.90
22526;DHT22;11429;50.842;4.386;2023-02-21T18:58:54;7.40;99.90
22526;DHT22;11429;50.842;4.386;2023-02-21T19:01:21;7.30;99.90
22526;DHT22;11429;50.842;4.386;2023-02-21T19:03:50;7.30;99.90
22526;DHT22;11429;50.842;4.386;2023-02-21T19:06:19;7.30;99.90
22526;DHT22;11429;50.842;4.386;2023-02-21T19:08:46;7.20;99.90
22526;DHT22;11429;50.842;4.386;2023-02-21T19:11:13;7.30;99.90